Banner, Wyoming
Current Conditions -  °F | °C
As of 9:39 PM on Wednesday 26 Nov 2014 (Local Time) from KSHR Reporting Station
Few Clouds Few Clouds  
Wind Chill: 14°   Ceiling: Unl
Heat Index: 24°   Visibility: 8mi
Dew Point: 21°   Wind: 9mph
Humidity: 88%   Direction: 280°W
Pressure: 30.12"   Gusts: NA
Location:  44.6°N, 106.87°W
Report Text: KSHR 270439Z AUTO 28008KT 8SM FEW001 M04/M06 A3012 RMK AO2 T10441061 TSNO
Loading
Personal Weather Stations






























Interactive Weather Map New forecast layout! Learn more

10-Day Weather Forecast

Advertisements
Track Severe Weather on mobile